createdAt,value
2019-05-03T00:00:18.773Z,10.70
2019-05-03T00:02:52.231Z,10.90
2019-05-03T00:05:04.355Z,11.63
2019-05-03T00:07:08.323Z,11.67
2019-05-03T00:09:14.388Z,11.73
2019-05-03T00:11:22.090Z,10.93
2019-05-03T00:13:26.107Z,10.83
2019-05-03T00:15:48.938Z,11.67
2019-05-03T00:17:52.766Z,11.40
2019-05-03T00:19:56.587Z,11.20
2019-05-03T00:22:02.144Z,11.00
2019-05-03T00:24:06.990Z,12.30
2019-05-03T00:26:11.998Z,11.17
2019-05-03T00:28:15.895Z,10.47
2019-05-03T00:30:19.792Z,12.07
2019-05-03T00:32:25.695Z,10.90
2019-05-03T00:34:34.494Z,11.30
2019-05-03T00:36:52.487Z,11.13
2019-05-03T00:39:01.938Z,10.33
2019-05-03T00:41:05.908Z,11.27
2019-05-03T00:43:11.598Z,11.20
2019-05-03T00:45:16.617Z,10.23
2019-05-03T00:47:22.155Z,10.73
2019-05-03T00:49:27.021Z,10.90
2019-05-03T00:51:31.789Z,10.97
2019-05-03T00:53:35.560Z,10.97
2019-05-03T00:55:42.010Z,10.43
2019-05-03T00:57:45.782Z,11.60
2019-05-03T00:59:49.637Z,10.87
2019-05-03T01:01:53.425Z,11.20
2019-05-03T01:03:57.257Z,11.03
2019-05-03T01:06:02.322Z,11.37
2019-05-03T01:08:06.245Z,11.27
2019-05-03T01:10:11.839Z,11.03
2019-05-03T01:12:15.717Z,10.33
2019-05-03T01:14:19.592Z,10.67
2019-05-03T01:16:25.956Z,11.90
2019-05-03T01:18:29.793Z,12.73
2019-05-03T01:20:33.677Z,11.17
2019-05-03T01:22:37.504Z,11.07
2019-05-03T01:24:42.776Z,11.30
2019-05-03T01:26:47.642Z,12.10
2019-05-03T01:28:52.120Z,11.23
2019-05-03T01:30:56.257Z,11.40
2019-05-03T01:33:00.101Z,11.50
2019-05-03T01:35:05.634Z,11.90
2019-05-03T01:37:09.456Z,12.97
2019-05-03T01:39:13.240Z,11.33
2019-05-03T01:41:17.052Z,12.17
2019-05-03T01:43:22.212Z,12.07
2019-05-03T01:45:26.140Z,11.97
2019-05-03T01:47:37.685Z,11.80
2019-05-03T01:49:49.093Z,11.57
2019-05-03T01:52:12.813Z,11.93
2019-05-03T01:54:16.623Z,12.17
2019-05-03T01:56:22.260Z,11.90
2019-05-03T01:58:26.226Z,11.83
2019-05-03T02:00:31.883Z,12.07
2019-05-03T02:02:52.468Z,12.33
2019-05-03T02:05:15.449Z,11.80
2019-05-03T02:07:19.321Z,12.27
2019-05-03T02:09:23.102Z,11.43
2019-05-03T02:11:26.908Z,11.37
2019-05-03T02:13:32.129Z,11.60
2019-05-03T02:15:37.054Z,12.23
2019-05-03T02:17:42.649Z,11.13
2019-05-03T02:19:46.510Z,11.97
2019-05-03T02:21:52.215Z,11.27
2019-05-03T02:23:55.936Z,11.40
2019-05-03T02:25:59.831Z,12.17
2019-05-03T02:28:03.736Z,11.37
2019-05-03T02:30:08.044Z,10.93
2019-05-03T02:32:13.321Z,11.83
2019-05-03T02:34:17.227Z,11.53
2019-05-03T02:36:23.310Z,11.63
2019-05-03T02:38:27.707Z,11.97
2019-05-03T02:40:33.821Z,11.27
2019-05-03T02:42:37.158Z,11.67
2019-05-03T02:44:41.213Z,10.80
2019-05-03T02:46:56.876Z,11.47
2019-05-03T02:49:26.033Z,12.13
2019-05-03T02:51:29.850Z,10.70
2019-05-03T02:53:35.875Z,11.77
2019-05-03T02:55:41.235Z,10.90
2019-05-03T02:57:46.697Z,11.17
2019-05-03T02:59:50.659Z,11.23
2019-05-03T03:01:55.910Z,10.63
2019-05-03T03:03:59.896Z,10.90
2019-05-03T03:06:06.737Z,11.53
2019-05-03T03:08:11.399Z,11.63
2019-05-03T03:10:17.490Z,10.83
2019-05-03T03:12:25.795Z,11.47
2019-05-03T03:14:32.946Z,11.90
2019-05-03T03:16:37.457Z,12.40
2019-05-03T03:18:41.651Z,12.57
2019-05-03T03:20:49.479Z,12.00
2019-05-03T03:22:56.350Z,12.77
2019-05-03T03:25:01.620Z,12.77
2019-05-03T03:27:08.152Z,12.03
2019-05-03T03:29:16.028Z,13.23
2019-05-03T03:31:28.925Z,11.80
2019-05-03T03:33:32.639Z,12.90
2019-05-03T03:35:39.794Z,12.73
2019-05-03T03:37:46.163Z,12.80
2019-05-03T03:39:50.592Z,12.40
2019-05-03T03:41:56.059Z,12.87
2019-05-03T03:44:02.886Z,12.77
2019-05-03T03:46:10.276Z,12.57
2019-05-03T03:48:15.964Z,12.83
2019-05-03T03:50:19.718Z,12.03
2019-05-03T03:52:27.477Z,11.93
2019-05-03T03:54:35.490Z,12.37
2019-05-03T03:56:58.399Z,11.43
2019-05-03T03:58:48.377Z,12.77
2019-05-03T04:00:52.274Z,13.37
2019-05-03T04:02:56.194Z,12.43
2019-05-03T04:05:00.087Z,12.17
2019-05-03T04:07:06.247Z,12.03
2019-05-03T04:09:11.729Z,12.27
2019-05-03T04:11:15.804Z,12.17
2019-05-03T04:13:21.501Z,12.20
2019-05-03T04:15:56.628Z,12.40
2019-05-03T04:18:19.034Z,11.60
2019-05-03T04:20:25.711Z,11.13
2019-05-03T04:22:30.587Z,11.80
2019-05-03T04:24:35.348Z,10.97
2019-05-03T04:26:40.802Z,11.37
2019-05-03T04:28:45.370Z,10.73
2019-05-03T04:30:49.281Z,11.10
2019-05-03T04:32:56.191Z,11.63
2019-05-03T04:34:58.620Z,11.10
2019-05-03T04:37:05.188Z,10.97
2019-05-03T04:39:08.072Z,11.27
2019-05-03T04:41:11.958Z,10.27
2019-05-03T04:43:16.562Z,11.10
2019-05-03T04:45:20.415Z,10.90
2019-05-03T04:47:26.456Z,10.73
2019-05-03T04:49:31.501Z,10.17
2019-05-03T04:51:35.364Z,10.13
2019-05-03T04:53:41.796Z,10.57
2019-05-03T04:55:46.828Z,11.17
2019-05-03T04:57:50.779Z,10.23
2019-05-03T04:59:56.048Z,10.37
2019-05-03T05:01:59.941Z,11.20
2019-05-03T05:04:05.319Z,11.07
2019-05-03T05:06:09.388Z,10.30
2019-05-03T05:08:13.200Z,9.87
2019-05-03T05:10:17.084Z,11.00
2019-05-03T05:12:20.918Z,10.97
2019-05-03T05:14:25.830Z,11.17
2019-05-03T05:16:29.840Z,10.13
2019-05-03T05:18:41.555Z,9.70
2019-05-03T05:20:52.994Z,9.63
2019-05-03T05:22:56.901Z,10.03
2019-05-03T05:25:04.366Z,9.63
2019-05-03T05:27:19.752Z,10.50
2019-05-03T05:29:25.629Z,10.60
2019-05-03T05:31:30.461Z,10.83
2019-05-03T05:33:35.352Z,9.97
2019-05-03T05:35:39.204Z,10.27
2019-05-03T05:37:44.419Z,9.83
2019-05-03T05:39:48.239Z,10.57
2019-05-03T05:41:52.050Z,10.10
2019-05-03T05:43:55.833Z,9.70
2019-05-03T05:45:59.658Z,9.93
2019-05-03T05:48:07.898Z,10.87
2019-05-03T05:50:27.871Z,10.13
2019-05-03T05:52:31.628Z,11.00
2019-05-03T05:54:37.365Z,10.57
2019-05-03T05:56:58.156Z,10.70
2019-05-03T05:59:05.944Z,10.47
2019-05-03T06:01:20.155Z,9.67
2019-05-03T06:03:25.237Z,5.93
2019-05-03T06:05:29.087Z,6.33
2019-05-03T06:07:44.338Z,4.90
2019-05-03T06:09:58.687Z,4.90
2019-05-03T06:12:09.623Z,4.63
2019-05-03T06:14:20.090Z,4.20
2019-05-03T06:16:41.499Z,4.47
2019-05-03T06:19:07.494Z,4.60
2019-05-03T06:21:19.066Z,4.97
2019-05-03T06:23:34.756Z,4.83
2019-05-03T06:25:40.880Z,4.77
2019-05-03T06:27:44.954Z,4.50
2019-05-03T06:29:49.768Z,4.60
2019-05-03T06:32:05.386Z,3.37
2019-05-03T06:34:09.294Z,4.13
2019-05-03T06:36:15.118Z,3.93
2019-05-03T06:38:18.730Z,3.97
2019-05-03T06:40:22.618Z,4.20
2019-05-03T06:42:26.478Z,4.43
2019-05-03T06:44:30.358Z,3.53
2019-05-03T06:46:45.631Z,3.77
2019-05-03T06:48:50.694Z,3.47
2019-05-03T06:50:55.786Z,3.97
2019-05-03T06:53:04.339Z,3.73
2019-05-03T06:55:10.505Z,3.40
2019-05-03T06:57:14.803Z,3.37
2019-05-03T06:59:26.939Z,3.67
2019-05-03T07:01:37.847Z,3.77
2019-05-03T07:04:05.090Z,3.90
2019-05-03T07:06:34.481Z,3.67
2019-05-03T07:08:49.651Z,3.67
2019-05-03T07:10:57.148Z,4.63
2019-05-03T07:13:02.262Z,3.90
2019-05-03T07:15:06.080Z,4.03
2019-05-03T07:17:09.965Z,4.50
2019-05-03T07:19:14.725Z,4.43
2019-05-03T07:21:18.518Z,4.13
2019-05-03T07:23:24.351Z,4.27
2019-05-03T07:25:27.862Z,4.47
2019-05-03T07:27:31.731Z,4.70
2019-05-03T07:29:36.607Z,4.17
2019-05-03T07:31:40.413Z,4.17
2019-05-03T07:33:44.676Z,4.07
2019-05-03T07:35:48.410Z,3.73
2019-05-03T07:37:52.235Z,3.80
2019-05-03T07:39:56.252Z,4.00
2019-05-03T07:42:00.029Z,3.87
2019-05-03T07:44:05.375Z,3.93
2019-05-03T07:46:09.169Z,4.00
2019-05-03T07:48:14.917Z,3.50
2019-05-03T07:50:18.691Z,3.23
2019-05-03T07:52:22.433Z,4.43
2019-05-03T07:54:26.156Z,3.73
2019-05-03T07:56:35.578Z,4.03
2019-05-03T07:58:40.621Z,3.77
2019-05-03T08:00:44.747Z,4.00
2019-05-03T08:02:48.505Z,4.10
2019-05-03T08:04:52.330Z,3.33
2019-05-03T08:06:56.168Z,4.10
2019-05-03T08:09:00.218Z,3.80
2019-05-03T08:11:05.324Z,3.90
2019-05-03T08:13:09.176Z,4.13
2019-05-03T08:15:15.592Z,3.93
2019-05-03T08:17:18.860Z,3.67
2019-05-03T08:19:24.476Z,3.80
2019-05-03T08:21:28.167Z,4.00
2019-05-03T08:23:31.963Z,3.60
2019-05-03T08:25:36.860Z,3.30
2019-05-03T08:27:40.588Z,3.10
2019-05-03T08:29:45.403Z,3.40
2019-05-03T08:31:59.825Z,3.50
2019-05-03T08:34:35.053Z,3.07
2019-05-03T08:36:59.182Z,3.00
2019-05-03T08:39:05.360Z,3.50
2019-05-03T08:41:10.394Z,3.60
2019-05-03T08:43:15.547Z,3.40
2019-05-03T08:45:19.420Z,2.37
2019-05-03T08:47:24.746Z,3.00
2019-05-03T08:49:28.745Z,2.93
2019-05-03T08:51:32.462Z,3.33
2019-05-03T08:53:36.333Z,3.10
2019-05-03T08:55:40.112Z,3.17
2019-05-03T08:57:44.791Z,3.27
2019-05-03T08:59:48.585Z,3.77
2019-05-03T09:01:52.402Z,2.73
2019-05-03T09:03:56.261Z,2.43
2019-05-03T09:06:00.032Z,2.00
2019-05-03T09:08:05.679Z,2.27
2019-05-03T09:10:18.699Z,2.67
2019-05-03T09:12:22.408Z,2.60
2019-05-03T09:14:38.750Z,1.90
2019-05-03T09:16:31.739Z,2.33
2019-05-03T09:18:35.460Z,1.93
2019-05-03T09:20:39.256Z,2.30
2019-05-03T09:22:45.210Z,2.20
2019-05-03T09:24:48.572Z,1.80
2019-05-03T09:26:52.498Z,1.77
2019-05-03T09:28:56.299Z,1.60
2019-05-03T09:31:00.027Z,1.50
2019-05-03T09:33:06.000Z,1.87
2019-05-03T09:35:28.987Z,1.67
2019-05-03T09:37:19.400Z,1.80
2019-05-03T09:39:24.524Z,1.80
2019-05-03T09:41:28.470Z,2.03
2019-05-03T09:43:32.252Z,1.60
2019-05-03T09:45:37.073Z,1.77
2019-05-03T09:47:41.013Z,1.70
2019-05-03T09:49:45.363Z,1.13
2019-05-03T09:51:49.263Z,1.27
2019-05-03T09:53:57.694Z,1.37
2019-05-03T09:56:01.518Z,1.17
2019-05-03T09:58:05.687Z,1.20
2019-05-03T10:00:11.387Z,1.37
2019-05-03T10:02:15.266Z,1.60
2019-05-03T10:04:19.108Z,1.40
2019-05-03T10:06:25.033Z,1.20
2019-05-03T10:08:28.310Z,1.30
2019-05-03T10:10:51.155Z,1.07
2019-05-03T10:12:55.146Z,1.00
2019-05-03T10:14:58.867Z,1.00
2019-05-03T10:17:27.798Z,0.80
2019-05-03T10:19:37.698Z,1.20
2019-05-03T10:21:39.286Z,1.30
2019-05-03T10:23:44.922Z,1.10
2019-05-03T10:25:48.574Z,1.20
2019-05-03T10:27:52.481Z,1.60
2019-05-03T10:30:09.660Z,1.50
2019-05-03T10:32:15.147Z,1.33
2019-05-03T10:34:19.020Z,1.20
2019-05-03T10:36:24.762Z,1.20
2019-05-03T10:38:28.316Z,1.57
2019-05-03T10:40:33.035Z,1.17
2019-05-03T10:42:36.926Z,1.20
2019-05-03T10:44:40.739Z,1.07
2019-05-03T10:46:45.268Z,1.73
2019-05-03T10:48:49.085Z,1.10
2019-05-03T10:50:52.870Z,1.13
2019-05-03T10:53:24.562Z,1.27
2019-05-03T10:55:30.292Z,1.33
2019-05-03T10:57:36.427Z,1.10
2019-05-03T10:59:40.319Z,1.10
2019-05-03T11:02:06.296Z,1.40
2019-05-03T11:04:11.109Z,1.23
2019-05-03T11:06:14.924Z,1.27
2019-05-03T11:08:18.720Z,1.30
2019-05-03T11:10:25.169Z,1.27
2019-05-03T11:12:29.199Z,1.40
2019-05-03T11:14:35.000Z,1.50
2019-05-03T11:16:38.875Z,3.30
2019-05-03T11:18:42.612Z,4.23
2019-05-03T11:20:46.441Z,4.17
2019-05-03T11:22:50.246Z,3.20
2019-05-03T11:24:54.685Z,5.57
2019-05-03T11:27:00.453Z,2.10
2019-05-03T11:29:05.185Z,2.10
2019-05-03T11:31:26.511Z,12.10
2019-05-03T11:33:35.495Z,15.90
2019-05-03T11:35:46.321Z,20.37
2019-05-03T11:37:53.991Z,4.43
2019-05-03T11:39:57.843Z,4.10
2019-05-03T11:42:01.686Z,5.87
2019-05-03T11:44:24.585Z,1.97
2019-05-03T11:46:28.391Z,1.47
2019-05-03T11:48:32.209Z,1.47
2019-05-03T11:50:35.931Z,1.77
2019-05-03T11:52:39.722Z,1.47
2019-05-03T11:54:45.256Z,1.47
2019-05-03T11:56:49.238Z,1.33
2019-05-03T11:58:54.859Z,1.40
2019-05-03T12:01:14.905Z,1.30
2019-05-03T12:03:35.379Z,1.10
2019-05-03T12:05:38.887Z,1.40
2019-05-03T12:07:45.544Z,1.20
2019-05-03T12:09:49.362Z,1.07
2019-05-03T12:11:55.345Z,1.23
2019-05-03T12:14:11.626Z,1.23
2019-05-03T12:16:21.785Z,1.47
2019-05-03T12:18:21.475Z,1.43
2019-05-03T12:20:28.505Z,1.70
2019-05-03T12:22:31.504Z,1.53
2019-05-03T12:24:37.046Z,1.73
2019-05-03T12:26:44.653Z,1.60
2019-05-03T12:28:46.725Z,1.60
2019-05-03T12:30:51.548Z,1.90
2019-05-03T12:32:55.342Z,2.10
2019-05-03T12:34:59.214Z,2.03
2019-05-03T12:37:05.169Z,1.70
2019-05-03T12:39:23.226Z,1.53
2019-05-03T12:41:15.686Z,1.97
2019-05-03T12:43:19.483Z,2.10
2019-05-03T12:45:24.781Z,1.67
2019-05-03T12:47:28.702Z,1.97
2019-05-03T12:49:32.498Z,1.57
2019-05-03T12:51:36.239Z,1.80
2019-05-03T12:53:39.980Z,1.93
2019-05-03T12:55:43.775Z,1.97
2019-05-03T12:57:47.500Z,3.20
2019-05-03T12:59:57.717Z,5.50
2019-05-03T13:02:24.755Z,3.23
2019-05-03T13:04:31.274Z,2.60
2019-05-03T13:06:37.855Z,3.10
2019-05-03T13:08:45.394Z,3.33
2019-05-03T13:10:49.898Z,2.30
2019-05-03T13:12:55.861Z,2.20
2019-05-03T13:14:59.306Z,2.37
2019-05-03T13:17:04.743Z,1.60
2019-05-03T13:19:08.581Z,2.23
2019-05-03T13:21:12.434Z,2.10
2019-05-03T13:23:16.187Z,2.20
2019-05-03T13:25:20.157Z,1.83
2019-05-03T13:27:25.300Z,1.90
2019-05-03T13:29:29.155Z,1.90
2019-05-03T13:31:34.703Z,2.10
2019-05-03T13:33:38.492Z,2.30
2019-05-03T13:35:44.451Z,2.10
2019-05-03T13:37:47.963Z,1.93
2019-05-03T13:39:51.742Z,2.07
2019-05-03T13:41:55.614Z,1.83
2019-05-03T13:43:59.436Z,2.10
2019-05-03T13:46:05.112Z,2.30
2019-05-03T13:48:08.710Z,2.30
2019-05-03T13:50:15.128Z,2.30
2019-05-03T13:52:19.963Z,2.10
2019-05-03T13:54:25.517Z,2.03
2019-05-03T13:56:29.458Z,3.17
2019-05-03T13:58:35.576Z,2.03
2019-05-03T14:00:38.768Z,2.47
2019-05-03T14:02:44.780Z,2.60
2019-05-03T14:04:52.526Z,2.93
2019-05-03T14:06:55.281Z,3.17
2019-05-03T14:08:59.014Z,2.30
2019-05-03T14:11:04.835Z,2.53
2019-05-03T14:13:08.337Z,2.37
2019-05-03T14:15:12.326Z,2.20
2019-05-03T14:17:16.091Z,2.57
2019-05-03T14:19:27.009Z,2.33
2019-05-03T14:21:39.434Z,2.30
2019-05-03T14:24:00.682Z,2.13
2019-05-03T14:26:04.622Z,3.70
2019-05-03T14:28:08.502Z,3.40
2019-05-03T14:30:14.601Z,8.17
2019-05-03T14:32:25.771Z,3.57
2019-05-03T14:34:25.747Z,1.87
2019-05-03T14:36:29.571Z,2.00
2019-05-03T14:38:33.294Z,2.40
2019-05-03T14:40:37.019Z,2.40
2019-05-03T14:42:40.806Z,2.50
2019-05-03T14:44:45.530Z,2.40
2019-05-03T14:46:49.398Z,2.13
2019-05-03T14:48:54.950Z,2.00
2019-05-03T14:50:59.746Z,1.70
2019-05-03T14:53:05.468Z,1.70
2019-05-03T14:55:15.478Z,1.90
2019-05-03T14:57:31.953Z,2.13
2019-05-03T15:00:16.985Z,2.13
2019-05-03T15:02:40.228Z,2.00
2019-05-03T15:04:34.918Z,2.23
2019-05-03T15:06:38.205Z,2.20
2019-05-03T15:08:42.012Z,2.20
2019-05-03T15:10:45.851Z,2.30
2019-05-03T15:12:49.605Z,2.70
2019-05-03T15:14:54.589Z,2.70
2019-05-03T15:17:00.399Z,2.17
2019-05-03T15:19:05.429Z,2.43
2019-05-03T15:21:09.343Z,2.30
2019-05-03T15:23:14.691Z,2.87
2019-05-03T15:25:18.655Z,2.60
2019-05-03T15:27:24.622Z,2.13
2019-05-03T15:29:27.888Z,2.40
2019-05-03T15:31:31.641Z,2.47
2019-05-03T15:33:35.546Z,2.50
2019-05-03T15:35:39.351Z,2.60
2019-05-03T15:37:45.100Z,2.83
2019-05-03T15:39:48.583Z,2.63
2019-05-03T15:41:54.332Z,2.67
2019-05-03T15:44:19.761Z,3.30
2019-05-03T15:46:45.506Z,2.77
2019-05-03T15:48:52.168Z,2.97
2019-05-03T15:50:57.984Z,2.67
2019-05-03T15:53:01.727Z,2.70
2019-05-03T15:55:06.124Z,2.57
2019-05-03T15:57:09.921Z,2.60
2019-05-03T15:59:15.008Z,2.83
2019-05-03T16:01:18.845Z,2.80
2019-05-03T16:03:22.632Z,2.83
2019-05-03T16:05:26.349Z,2.97
2019-05-03T16:07:30.154Z,2.93
2019-05-03T16:09:35.239Z,2.80
2019-05-03T16:11:38.918Z,2.57
2019-05-03T16:13:44.675Z,2.70
2019-05-03T16:15:48.335Z,2.40
2019-05-03T16:17:52.137Z,2.50
2019-05-03T16:19:55.939Z,2.63
2019-05-03T16:21:59.758Z,2.80
2019-05-03T16:24:05.000Z,2.73
2019-05-03T16:26:08.701Z,2.43
2019-05-03T16:28:17.487Z,2.67
2019-05-03T16:30:29.038Z,2.93
2019-05-03T16:32:34.689Z,2.53
2019-05-03T16:34:38.317Z,3.20
2019-05-03T16:36:42.157Z,3.10
2019-05-03T16:38:45.950Z,2.67
2019-05-03T16:40:49.802Z,3.37
2019-05-03T16:42:53.528Z,3.10
2019-05-03T16:44:57.818Z,3.00
2019-05-03T16:47:01.558Z,3.20
2019-05-03T16:49:06.542Z,3.13
2019-05-03T16:51:11.458Z,3.17
2019-05-03T16:53:15.193Z,2.93
2019-05-03T16:55:19.001Z,4.60
2019-05-03T16:57:24.629Z,3.53
2019-05-03T16:59:28.274Z,3.37
2019-05-03T17:01:31.994Z,3.40
2019-05-03T17:03:45.435Z,3.23
2019-05-03T17:06:16.392Z,3.00
2019-05-03T17:08:48.101Z,2.83
2019-05-03T17:10:54.479Z,2.27
2019-05-03T17:12:57.971Z,2.53
2019-05-03T17:15:01.958Z,2.53
2019-05-03T17:17:07.281Z,2.60
2019-05-03T17:19:11.174Z,2.87
2019-05-03T17:21:16.333Z,2.40
2019-05-03T17:23:20.153Z,2.97
2019-05-03T17:25:24.505Z,2.60
2019-05-03T17:27:28.283Z,2.93
2019-05-03T17:29:32.136Z,2.87
2019-05-03T17:31:35.852Z,22.80
2019-05-03T17:33:50.628Z,5.93
2019-05-03T17:35:45.100Z,3.40
2019-05-03T17:37:48.908Z,3.00
2019-05-03T17:40:14.823Z,4.10
2019-05-03T17:42:25.463Z,4.90
2019-05-03T17:44:34.811Z,3.90
2019-05-03T17:46:38.534Z,4.27
2019-05-03T17:48:42.323Z,3.43
2019-05-03T17:50:46.209Z,3.83
2019-05-03T17:52:56.783Z,3.50
2019-05-03T17:55:16.100Z,3.60
2019-05-03T17:57:24.356Z,3.27
2019-05-03T17:59:34.947Z,3.30
2019-05-03T18:02:15.728Z,3.60
2019-05-03T18:04:44.157Z,3.40
2019-05-03T18:06:58.512Z,3.20
2019-05-03T18:09:21.270Z,3.00
2019-05-03T18:11:28.894Z,3.27
2019-05-03T18:13:32.801Z,3.77
2019-05-03T18:15:36.576Z,3.80
2019-05-03T18:17:40.390Z,4.40
2019-05-03T18:19:44.802Z,5.40
2019-05-03T18:21:48.819Z,7.80
2019-05-03T18:23:54.341Z,7.27
2019-05-03T18:25:58.209Z,8.67
2019-05-03T18:28:01.982Z,10.30
2019-05-03T18:30:07.118Z,9.57
2019-05-03T18:32:10.829Z,10.33
2019-05-03T18:34:19.923Z,10.43
2019-05-03T18:36:20.149Z,10.53
2019-05-03T18:38:25.222Z,11.90
2019-05-03T18:40:30.235Z,6.57
2019-05-03T18:42:39.986Z,4.87
2019-05-03T18:44:47.625Z,4.47
2019-05-03T18:46:55.083Z,3.23
2019-05-03T18:48:58.903Z,3.40
2019-05-03T18:51:02.638Z,3.50
2019-05-03T18:53:06.506Z,3.33
2019-05-03T18:55:10.650Z,3.30
2019-05-03T18:57:15.669Z,3.13
2019-05-03T18:59:22.528Z,3.00
2019-05-03T19:01:26.267Z,3.20
2019-05-03T19:03:30.132Z,3.13
2019-05-03T19:05:35.754Z,3.10
2019-05-03T19:07:54.609Z,3.43
2019-05-03T19:10:11.392Z,3.53
2019-05-03T19:12:32.428Z,4.10
2019-05-03T19:14:36.307Z,5.10
2019-05-03T19:16:57.755Z,5.30
2019-05-03T19:19:01.677Z,4.70
2019-05-03T19:21:05.487Z,4.77
2019-05-03T19:23:09.400Z,4.20
2019-05-03T19:25:14.876Z,4.17
2019-05-03T19:27:18.680Z,3.47
2019-05-03T19:29:22.417Z,3.33
2019-05-03T19:31:26.557Z,3.17
2019-05-03T19:33:30.368Z,3.73
2019-05-03T19:35:36.341Z,3.77
2019-05-03T19:37:39.701Z,3.60
2019-05-03T19:39:43.450Z,3.93
2019-05-03T19:41:47.246Z,4.10
2019-05-03T19:43:51.161Z,3.67
2019-05-03T19:45:54.964Z,3.73
2019-05-03T19:47:59.772Z,3.70
2019-05-03T19:50:05.056Z,3.27
2019-05-03T19:52:10.171Z,3.20
2019-05-03T19:54:14.693Z,3.90
2019-05-03T19:56:19.613Z,3.40
2019-05-03T19:58:24.884Z,3.33
2019-05-03T20:00:37.027Z,3.07
2019-05-03T20:03:05.231Z,3.50
2019-05-03T20:05:22.002Z,3.63
2019-05-03T20:07:50.635Z,3.57
2019-05-03T20:09:54.498Z,3.30
2019-05-03T20:11:58.591Z,3.50
2019-05-03T20:14:04.724Z,3.53
2019-05-03T20:16:08.693Z,3.77
2019-05-03T20:18:14.918Z,3.90
2019-05-03T20:20:20.422Z,4.00
2019-05-03T20:22:24.881Z,3.70
2019-05-03T20:24:30.852Z,3.63
2019-05-03T20:26:34.908Z,3.27
2019-05-03T20:28:38.807Z,3.37
2019-05-03T20:30:45.200Z,3.93
2019-05-03T20:32:49.321Z,3.63
2019-05-03T20:34:55.006Z,3.57
2019-05-03T20:36:58.595Z,3.57
2019-05-03T20:39:05.445Z,3.77
2019-05-03T20:41:09.258Z,3.60
2019-05-03T20:43:41.021Z,3.57
2019-05-03T20:45:54.693Z,3.50
2019-05-03T20:47:59.755Z,3.53
2019-05-03T20:50:17.162Z,3.30
2019-05-03T20:52:20.897Z,3.20
2019-05-03T20:54:24.619Z,3.53
2019-05-03T20:56:28.431Z,3.33
2019-05-03T20:58:32.249Z,3.00
2019-05-03T21:00:36.097Z,3.50
2019-05-03T21:02:50.679Z,3.00
2019-05-03T21:04:45.415Z,3.10
2019-05-03T21:06:49.195Z,2.83
2019-05-03T21:08:54.208Z,3.60
2019-05-03T21:10:58.505Z,3.07
2019-05-03T21:13:02.236Z,3.13
2019-05-03T21:15:09.399Z,3.03
2019-05-03T21:17:32.236Z,3.50
2019-05-03T21:19:47.804Z,3.43
2019-05-03T21:22:19.458Z,3.33
2019-05-03T21:24:29.238Z,3.53
2019-05-03T21:26:34.583Z,3.37
2019-05-03T21:28:38.657Z,3.23
2019-05-03T21:30:42.480Z,3.80
2019-05-03T21:32:46.289Z,3.43
2019-05-03T21:34:51.174Z,3.80
2019-05-03T21:36:54.878Z,3.33
2019-05-03T21:38:58.610Z,4.13
2019-05-03T21:41:02.340Z,3.93
2019-05-03T21:43:06.127Z,3.37
2019-05-03T21:45:11.187Z,3.80
2019-05-03T21:47:45.941Z,4.20
2019-05-03T21:49:49.802Z,3.97
2019-05-03T21:51:53.736Z,4.37
2019-05-03T21:53:57.494Z,4.60
2019-05-03T21:56:01.308Z,5.00
2019-05-03T21:58:05.153Z,4.03
2019-05-03T22:00:09.529Z,4.80
2019-05-03T22:02:15.285Z,5.00
2019-05-03T22:04:18.768Z,4.63
2019-05-03T22:06:24.514Z,5.00
2019-05-03T22:08:28.003Z,5.00
2019-05-03T22:10:31.804Z,5.07
2019-05-03T22:12:35.518Z,4.27
2019-05-03T22:14:45.463Z,4.77
2019-05-03T22:17:06.825Z,4.67
2019-05-03T22:19:10.577Z,4.57
2019-05-03T22:21:36.699Z,4.80
2019-05-03T22:23:49.986Z,5.00
2019-05-03T22:25:54.323Z,5.30
2019-05-03T22:27:59.177Z,4.77
2019-05-03T22:30:03.031Z,4.63
2019-05-03T22:32:07.864Z,4.93
2019-05-03T22:34:12.608Z,4.47
2019-05-03T22:36:16.445Z,4.30
2019-05-03T22:38:20.240Z,4.50
2019-05-03T22:40:25.115Z,5.73
2019-05-03T22:42:28.974Z,5.67
2019-05-03T22:44:32.747Z,5.57
2019-05-03T22:46:36.720Z,5.93
2019-05-03T22:48:40.471Z,5.33
2019-05-03T22:50:44.902Z,5.10
2019-05-03T22:52:48.685Z,5.00
2019-05-03T22:54:52.495Z,4.97
2019-05-03T22:56:56.440Z,4.80
2019-05-03T22:59:00.193Z,4.90
2019-05-03T23:01:04.158Z,4.73
2019-05-03T23:03:07.924Z,4.53
2019-05-03T23:05:12.999Z,5.63
2019-05-03T23:07:16.750Z,5.10
2019-05-03T23:09:20.640Z,5.67
2019-05-03T23:11:24.610Z,5.50
2019-05-03T23:13:28.463Z,5.50
2019-05-03T23:15:32.258Z,5.00
2019-05-03T23:17:36.078Z,5.03
2019-05-03T23:19:42.248Z,5.30
2019-05-03T23:22:05.214Z,5.63
2019-05-03T23:24:09.006Z,5.40
2019-05-03T23:26:14.734Z,5.33
2019-05-03T23:28:20.303Z,5.10
2019-05-03T23:30:24.793Z,5.33
2019-05-03T23:32:28.711Z,4.97
2019-05-03T23:34:32.513Z,4.90
2019-05-03T23:36:37.319Z,5.50
2019-05-03T23:38:45.039Z,4.77
2019-05-03T23:40:48.609Z,5.00
2019-05-03T23:42:54.210Z,5.63
2019-05-03T23:44:57.956Z,5.27
2019-05-03T23:47:20.790Z,5.47
2019-05-03T23:49:25.089Z,5.07
2019-05-03T23:51:46.553Z,5.50
2019-05-03T23:53:50.344Z,4.83
2019-05-03T23:55:59.401Z,4.57
2019-05-03T23:58:04.823Z,5.43
